createdAt,value
2022-08-23T00:05:59.887Z,1.70
2022-08-23T00:12:19.915Z,1.52
2022-08-23T00:18:22.923Z,1.67
2022-08-23T00:24:28.070Z,1.67
2022-08-23T00:30:30.164Z,1.60
2022-08-23T00:36:32.163Z,1.52
2022-08-23T00:43:15.968Z,1.63
2022-08-23T00:49:19.187Z,1.50
2022-08-23T00:55:21.918Z,1.60
2022-08-23T01:01:24.730Z,1.83
2022-08-23T01:07:51.808Z,1.93
2022-08-23T01:14:00.488Z,1.90
2022-08-23T01:20:07.766Z,1.88
2022-08-23T01:26:21.715Z,1.70
2022-08-23T01:32:25.808Z,1.90
2022-08-23T01:44:35.473Z,1.73
2022-08-23T01:50:39.606Z,1.40
2022-08-23T01:56:42.861Z,1.60
2022-08-23T02:02:47.212Z,1.67
2022-08-23T02:09:01.141Z,1.60
2022-08-23T02:15:06.317Z,1.88
2022-08-23T02:21:10.449Z,1.80
2022-08-23T02:27:15.462Z,1.70
2022-08-23T02:33:18.277Z,1.70
2022-08-23T02:39:20.486Z,1.83
2022-08-23T02:45:25.403Z,1.60
2022-08-23T02:51:27.278Z,1.40
2022-08-23T02:57:31.578Z,1.98
2022-08-23T03:03:38.079Z,1.73
2022-08-23T03:09:40.222Z,1.80
2022-08-23T03:15:47.446Z,1.90
2022-08-23T03:21:50.070Z,1.98
2022-08-23T03:27:52.700Z,1.60
2022-08-23T03:33:54.927Z,1.70
2022-08-23T03:39:57.177Z,1.83
2022-08-23T03:45:59.860Z,1.80
2022-08-23T03:52:11.182Z,1.67
2022-08-23T03:58:13.683Z,1.60
2022-08-23T04:04:15.873Z,1.70
2022-08-23T04:10:18.193Z,1.80
2022-08-23T04:16:20.388Z,2.58
2022-08-23T04:22:22.764Z,1.48
2022-08-23T04:28:25.159Z,1.55
2022-08-23T04:34:30.399Z,1.50
2022-08-23T04:40:50.777Z,1.58
2022-08-23T04:46:52.742Z,1.50
2022-08-23T04:52:54.762Z,1.40
2022-08-23T04:58:57.014Z,1.45
2022-08-23T05:05:01.224Z,1.85
2022-08-23T05:11:06.334Z,1.75
2022-08-23T05:17:08.370Z,1.67
2022-08-23T05:23:11.257Z,1.30
2022-08-23T05:29:15.942Z,1.55
2022-08-23T05:35:18.025Z,1.60
2022-08-23T05:41:21.278Z,1.48
2022-08-23T05:47:24.784Z,1.60
2022-08-23T05:59:29.582Z,1.42
2022-08-23T06:05:31.954Z,1.58
2022-08-23T06:11:35.170Z,1.90
2022-08-23T06:17:37.766Z,1.80
2022-08-23T06:23:40.802Z,1.15
2022-08-23T06:29:43.025Z,1.70
2022-08-23T06:35:44.943Z,1.63
2022-08-23T06:41:50.478Z,1.70
2022-08-23T06:47:52.461Z,1.40
2022-08-23T06:53:56.601Z,1.50
2022-08-23T06:59:58.417Z,1.52
2022-08-23T07:06:00.239Z,1.52
2022-08-23T07:12:02.887Z,2.10
2022-08-23T07:18:06.644Z,1.70
2022-08-23T07:24:13.878Z,1.80
2022-08-23T07:30:15.847Z,1.93
2022-08-23T07:36:20.037Z,1.70
2022-08-23T07:42:24.226Z,1.60
2022-08-23T07:48:52.420Z,1.50
2022-08-23T07:54:51.980Z,1.60
2022-08-23T08:00:57.328Z,1.55
2022-08-23T08:07:18.797Z,1.60
2022-08-23T08:13:22.545Z,1.60
2022-08-23T08:25:26.950Z,1.60
2022-08-23T08:31:30.306Z,1.48
2022-08-23T08:43:43.128Z,1.40
2022-08-23T08:49:51.410Z,1.70
2022-08-23T08:56:01.375Z,1.42
2022-08-23T09:02:05.848Z,1.30
2022-08-23T09:08:55.546Z,1.50
2022-08-23T09:21:17.931Z,1.50
2022-08-23T09:27:20.391Z,1.35
2022-08-23T09:33:26.309Z,1.65
2022-08-23T09:39:34.531Z,1.30
2022-08-23T09:45:40.741Z,1.45
2022-08-23T09:51:48.364Z,1.90
2022-08-23T09:57:53.266Z,1.75
2022-08-23T10:04:14.872Z,1.88
2022-08-23T10:10:36.140Z,1.60
2022-08-23T10:17:01.712Z,1.35
2022-08-23T10:23:35.627Z,1.42
2022-08-23T10:29:43.359Z,1.70
2022-08-23T10:36:09.170Z,1.50
2022-08-23T10:42:22.854Z,1.60
2022-08-23T10:48:32.174Z,1.20
2022-08-23T10:54:50.207Z,1.48
2022-08-23T11:00:54.541Z,1.48
2022-08-23T11:06:59.534Z,1.60
2022-08-23T11:13:15.867Z,1.50
2022-08-23T11:19:52.752Z,1.42
2022-08-23T11:25:54.887Z,1.75
2022-08-23T11:32:25.864Z,1.40
2022-08-23T11:38:50.421Z,1.92
2022-08-23T11:44:54.179Z,1.40
2022-08-23T11:51:38.870Z,1.60
2022-08-23T11:58:18.958Z,1.65
2022-08-23T12:04:27.230Z,1.40
2022-08-23T12:10:41.271Z,1.40
2022-08-23T12:16:49.805Z,1.40
2022-08-23T12:23:16.723Z,1.35
2022-08-23T12:29:42.792Z,1.63
2022-08-23T12:36:23.215Z,1.52
2022-08-23T12:42:28.782Z,1.80
2022-08-23T12:48:33.727Z,1.70
2022-08-23T12:54:44.866Z,1.60
2022-08-23T13:00:57.422Z,1.80
2022-08-23T13:07:03.994Z,1.48
2022-08-23T13:13:08.570Z,1.88
2022-08-23T13:19:17.434Z,1.80
2022-08-23T13:25:45.629Z,1.70
2022-08-23T13:32:03.128Z,1.75
2022-08-23T13:38:20.928Z,1.83
2022-08-23T13:44:24.782Z,1.70
2022-08-23T13:50:32.674Z,1.70
2022-08-23T13:57:00.840Z,1.60
2022-08-23T14:03:05.153Z,1.50
2022-08-23T14:09:08.212Z,2.05
2022-08-23T14:15:12.012Z,1.73
2022-08-23T14:21:15.216Z,2.03
2022-08-23T14:27:17.413Z,1.50
2022-08-23T14:39:24.710Z,1.65
2022-08-23T14:45:28.732Z,1.55
2022-08-23T14:51:37.051Z,1.80
2022-08-23T14:57:45.577Z,1.67
2022-08-23T15:15:53.792Z,1.70
2022-08-23T15:21:56.209Z,1.60
2022-08-23T15:34:00.438Z,2.33
2022-08-23T15:40:03.730Z,1.92
2022-08-23T15:46:08.778Z,1.90
2022-08-23T15:52:10.678Z,1.90
2022-08-23T15:58:22.550Z,1.60
2022-08-23T16:04:24.429Z,2.00
2022-08-23T16:10:26.284Z,1.70
2022-08-23T16:16:34.197Z,1.88
2022-08-23T16:22:36.619Z,2.03
2022-08-23T16:34:40.633Z,1.73
2022-08-23T16:40:44.923Z,1.90
2022-08-23T16:46:47.901Z,2.30
2022-08-23T16:52:49.726Z,1.80
2022-08-23T16:58:52.898Z,1.95
2022-08-23T17:04:56.264Z,1.85
2022-08-23T17:11:02.950Z,1.73
2022-08-23T17:17:05.428Z,1.88
2022-08-23T17:23:08.591Z,2.08
2022-08-23T17:29:12.362Z,1.90
2022-08-23T17:35:16.097Z,2.17
2022-08-23T17:41:18.132Z,1.88
2022-08-23T17:47:20.400Z,1.87
2022-08-23T17:53:23.289Z,2.10
2022-08-23T17:59:25.378Z,2.03
2022-08-23T18:05:29.606Z,2.00
2022-08-23T18:11:32.027Z,1.95
2022-08-23T18:17:34.934Z,2.35
2022-08-23T18:29:39.196Z,1.98
2022-08-23T18:35:42.150Z,2.20
2022-08-23T18:47:46.461Z,1.85
2022-08-23T18:53:48.357Z,1.80
2022-08-23T18:59:50.659Z,1.73
2022-08-23T19:05:52.926Z,1.70
2022-08-23T19:11:55.071Z,1.87
2022-08-23T19:17:59.734Z,1.80
2022-08-23T19:24:01.921Z,1.80
2022-08-23T19:30:05.576Z,1.40
2022-08-23T19:36:18.958Z,1.75
2022-08-23T19:42:36.723Z,1.17
2022-08-23T19:48:38.851Z,1.33
2022-08-23T19:54:40.880Z,1.30
2022-08-23T20:00:43.433Z,1.13
2022-08-23T20:06:45.821Z,1.30
2022-08-23T20:12:47.761Z,1.30
2022-08-23T20:18:51.620Z,1.10
2022-08-23T20:24:53.616Z,1.13
2022-08-23T20:30:55.547Z,1.42
2022-08-23T20:36:57.463Z,1.10
2022-08-23T20:43:00.523Z,1.10
2022-08-23T20:49:02.899Z,1.25
2022-08-23T20:55:09.561Z,1.13
2022-08-23T21:01:14.516Z,1.10
2022-08-23T21:07:16.627Z,1.00
2022-08-23T21:13:18.702Z,1.30
2022-08-23T21:19:20.892Z,1.30
2022-08-23T21:25:23.256Z,1.10
2022-08-23T21:31:26.651Z,1.03
2022-08-23T21:37:29.308Z,1.20
2022-08-23T21:43:32.700Z,1.10
2022-08-23T21:55:37.359Z,1.23
2022-08-23T22:01:40.031Z,0.95
2022-08-23T22:07:42.391Z,0.87
2022-08-23T22:13:45.326Z,1.20
2022-08-23T22:19:47.153Z,1.33
2022-08-23T22:25:52.315Z,1.10
2022-08-23T22:31:54.318Z,1.00
2022-08-23T22:38:12.906Z,0.90
2022-08-23T22:44:19.291Z,1.00
2022-08-23T22:50:22.277Z,1.10
2022-08-23T22:56:29.166Z,1.42
2022-08-23T23:02:32.328Z,1.00
2022-08-23T23:08:34.292Z,1.05
2022-08-23T23:14:36.200Z,1.38
2022-08-23T23:20:39.408Z,1.20
2022-08-23T23:26:42.252Z,1.10
2022-08-23T23:32:49.412Z,1.17
2022-08-23T23:38:55.015Z,0.98
2022-08-23T23:44:59.860Z,1.10
2022-08-23T23:51:05.220Z,1.08
2022-08-23T23:57:07.438Z,1.00
